Time;durP1;ratioP1;P1;durP2;ratioP2;P2;SDS_P1;SDS_P2;PMS_P1;PMS_P2;Temp;Humidity;BMP_temperature;BMP_pressure;BME280_temperature;BME280_humidity;BME280_pressure;Samples;Min_cycle;Max_cycle;Signal;HPM_P1;HPM_P2
2023/06/04 00:02:10;;;;;;;2.00;1.20;;;7.60;99.90;;;;;;4992661;28;20199;-88
2023/06/04 00:04:37;;;;;;;2.07;1.03;;;7.70;99.90;;;;;;4992145;28;20265;-89
2023/06/04 00:07:06;;;;;;;1.90;1.20;;;7.70;99.90;;;;;;4993461;28;20199;-88
2023/06/04 00:09:33;;;;;;;1.80;1.17;;;7.70;99.90;;;;;;4992789;28;20215;-89
2023/06/04 00:12:00;;;;;;;2.27;1.20;;;7.70;99.90;;;;;;4993073;28;20720;-88
2023/06/04 00:14:27;;;;;;;3.07;1.20;;;7.70;99.90;;;;;;4993090;28;20203;-88
2023/06/04 00:16:54;;;;;;;1.30;1.00;;;7.70;99.90;;;;;;4981448;28;20260;-88
2023/06/04 00:19:21;;;;;;;1.97;1.10;;;7.70;99.90;;;;;;4992964;28;20218;-89
2023/06/04 00:21:48;;;;;;;2.97;1.10;;;7.70;99.90;;;;;;4992281;28;20195;-89
2023/06/04 00:24:17;;;;;;;4.33;1.43;;;7.60;99.90;;;;;;4992036;28;20222;-88
2023/06/04 00:26:44;;;;;;;4.10;1.30;;;7.60;99.90;;;;;;4996927;28;20202;-88
2023/06/04 00:29:11;;;;;;;2.97;1.30;;;7.60;99.90;;;;;;4996880;28;20297;-89
2023/06/04 00:31:38;;;;;;;3.47;1.30;;;7.60;99.90;;;;;;4997194;28;20717;-88
2023/06/04 00:34:06;;;;;;;1.80;1.30;;;7.50;99.90;;;;;;4994752;28;20199;-88
2023/06/04 00:36:33;;;;;;;1.40;1.00;;;7.50;99.90;;;;;;4997417;28;20342;-88
2023/06/04 00:39:00;;;;;;;3.33;1.23;;;7.40;99.90;;;;;;4995928;28;20191;-88
2023/06/04 00:41:28;;;;;;;1.90;1.10;;;7.40;99.90;;;;;;4995769;28;20202;-88
2023/06/04 00:43:56;;;;;;;1.73;1.17;;;7.40;99.90;;;;;;4996588;28;20248;-88
2023/06/04 00:46:25;;;;;;;1.80;1.13;;;7.50;99.90;;;;;;4992761;28;20278;-89
2023/06/04 00:48:53;;;;;;;2.10;1.20;;;7.50;99.90;;;;;;4996647;28;20269;-89
2023/06/04 00:51:21;;;;;;;4.07;1.50;;;7.50;99.90;;;;;;4997108;28;20234;-89
2023/06/04 00:53:49;;;;;;;1.37;1.10;;;7.50;99.90;;;;;;4996612;28;20201;-89
2023/06/04 00:56:16;;;;;;;1.97;1.10;;;7.40;99.90;;;;;;4996731;28;20265;-89
2023/06/04 00:58:46;;;;;;;2.60;1.30;;;7.30;99.90;;;;;;4990778;28;20199;-89
2023/06/04 01:01:20;;;;;;;2.83;1.20;;;7.30;99.90;;;;;;4996385;28;20230;-88
2023/06/04 01:03:50;;;;;;;1.73;1.10;;;7.30;99.90;;;;;;4995801;28;20195;-89
2023/06/04 01:06:27;;;;;;;1.90;1.00;;;7.20;99.90;;;;;;4996434;28;20612;-89
2023/06/04 01:08:57;;;;;;;1.47;1.00;;;7.20;99.90;;;;;;4996103;28;20224;-89
2023/06/04 01:11:34;;;;;;;3.30;1.33;;;7.10;1.00;;;;;;4996071;28;20245;-89
2023/06/04 01:14:03;;;;;;;2.13;1.30;;;7.10;1.00;;;;;;4983748;28;20203;-89
2023/06/04 01:16:36;;;;;;;2.73;1.33;;;7.10;1.00;;;;;;4995818;28;20633;-88
2023/06/04 01:19:08;;;;;;;3.07;1.50;;;7.20;1.00;;;;;;4995963;28;20284;-88
2023/06/04 01:21:38;;;;;;;3.07;1.53;;;7.20;1.00;;;;;;4996143;28;20201;-89
2023/06/04 01:24:08;;;;;;;2.97;1.30;;;7.20;1.00;;;;;;4995786;28;20205;-88
2023/06/04 01:26:36;;;;;;;4.00;1.30;;;7.20;1.00;;;;;;4994954;28;20193;-89
2023/06/04 01:29:05;;;;;;;1.50;1.20;;;7.10;1.00;;;;;;4995621;28;20253;-88
2023/06/04 01:31:32;;;;;;;2.73;1.30;;;7.10;1.00;;;;;;4995112;28;20208;-89
2023/06/04 01:33:59;;;;;;;2.03;1.13;;;7.10;1.00;;;;;;4994567;28;20189;-88
2023/06/04 01:36:27;;;;;;;2.63;1.10;;;7.00;1.00;;;;;;4995836;28;20620;-89
2023/06/04 01:38:54;;;;;;;4.33;1.30;;;7.00;1.00;;;;;;4995788;28;20593;-89
2023/06/04 01:41:21;;;;;;;3.63;1.40;;;7.00;1.00;;;;;;4995775;28;20287;-88
2023/06/04 01:43:48;;;;;;;2.80;1.30;;;7.00;1.00;;;;;;4995577;28;20201;-88
2023/06/04 01:46:16;;;;;;;1.83;1.30;;;7.10;1.00;;;;;;4996153;28;20195;-88
2023/06/04 01:48:43;;;;;;;3.47;1.60;;;7.10;1.00;;;;;;4995304;28;20238;-88
2023/06/04 01:51:10;;;;;;;3.10;1.93;;;7.10;1.00;;;;;;4995200;28;20280;-89
2023/06/04 01:53:37;;;;;;;3.33;1.97;;;7.00;1.00;;;;;;4994830;28;20201;-88
2023/06/04 01:56:04;;;;;;;3.70;1.70;;;7.00;1.00;;;;;;4995529;28;20213;-89
2023/06/04 01:58:31;;;;;;;4.40;1.90;;;6.90;1.00;;;;;;4995520;28;20239;-88
2023/06/04 02:01:00;;;;;;;3.40;1.83;;;6.90;1.00;;;;;;4994533;28;20193;-89
2023/06/04 02:03:32;;;;;;;5.03;2.00;;;6.80;1.00;;;;;;4994824;28;20199;-89
2023/06/04 02:05:59;;;;;;;4.40;1.90;;;6.80;1.00;;;;;;4995131;28;20195;-89
2023/06/04 02:08:27;;;;;;;3.10;2.10;;;6.70;1.00;;;;;;4994774;28;20197;-89
2023/06/04 02:10:54;;;;;;;4.23;1.93;;;6.60;1.00;;;;;;4995101;28;20298;-88
2023/06/04 02:13:21;;;;;;;3.87;1.87;;;6.50;1.00;;;;;;4995324;28;20735;-89
2023/06/04 02:15:48;;;;;;;3.97;1.60;;;6.50;27.40;;;;;;4994536;28;20203;-89
2023/06/04 02:18:17;;;;;;;5.57;1.70;;;6.50;56.60;;;;;;4994930;28;20258;-89
2023/06/04 02:20:46;;;;;;;3.40;1.60;;;6.50;95.30;;;;;;4995088;28;20196;-89
2023/06/04 02:23:14;;;;;;;3.27;1.60;;;6.40;91.30;;;;;;4994710;28;20620;-88
2023/06/04 02:25:41;;;;;;;3.73;1.40;;;6.50;71.50;;;;;;4994843;28;20188;-88
2023/06/04 02:28:08;;;;;;;2.53;1.50;;;6.50;48.70;;;;;;4992592;28;20337;-89
2023/06/04 02:30:35;;;;;;;3.13;1.53;;;6.50;27.20;;;;;;4994655;28;20266;-89
2023/06/04 02:33:03;;;;;;;2.90;1.53;;;6.50;17.00;;;;;;4994735;28;20258;-88
2023/06/04 02:35:31;;;;;;;2.40;1.60;;;6.50;41.20;;;;;;4994735;28;20607;-88
2023/06/04 02:37:59;;;;;;;3.13;1.60;;;6.50;47.70;;;;;;4994394;28;20631;-88
2023/06/04 02:40:27;;;;;;;1.90;1.50;;;6.50;28.90;;;;;;4990304;28;20565;-88
2023/06/04 02:42:54;;;;;;;3.47;1.60;;;6.60;1.00;;;;;;4994342;28;20611;-88
2023/06/04 02:45:21;;;;;;;1.77;1.40;;;6.60;1.00;;;;;;4994302;28;20204;-89
2023/06/04 02:47:48;;;;;;;4.73;1.63;;;6.50;1.00;;;;;;4994726;28;20192;-89
2023/06/04 02:50:16;;;;;;;3.10;1.57;;;6.50;1.00;;;;;;4994088;28;20223;-89
2023/06/04 02:52:43;;;;;;;4.73;1.40;;;6.60;1.00;;;;;;4993765;28;20289;-89
2023/06/04 02:55:12;;;;;;;3.53;1.40;;;6.60;19.10;;;;;;4994744;28;20201;-88
2023/06/04 02:57:42;;;;;;;2.17;1.53;;;6.70;16.60;;;;;;4994115;28;20237;-89
2023/06/04 03:00:12;;;;;;;2.40;1.40;;;6.70;1.00;;;;;;4994197;28;20236;-89
2023/06/04 03:02:41;;;;;;;2.63;1.60;;;6.80;1.00;;;;;;4994317;28;20201;-89
2023/06/04 03:05:10;;;;;;;2.87;1.63;;;6.90;1.00;;;;;;4993976;28;20234;-89
2023/06/04 03:07:37;;;;;;;2.00;1.23;;;6.90;1.00;;;;;;4993955;28;20252;-89
2023/06/04 03:10:05;;;;;;;2.53;1.40;;;7.00;1.00;;;;;;4994199;28;20274;-89
2023/06/04 03:12:33;;;;;;;2.63;1.43;;;7.10;1.00;;;;;;4993945;28;20234;-89
2023/06/04 03:15:00;;;;;;;3.03;1.47;;;7.10;1.00;;;;;;4993858;28;20269;-89
2023/06/04 03:17:27;;;;;;;2.50;1.47;;;7.20;1.00;;;;;;4993700;28;20199;-89
2023/06/04 03:19:55;;;;;;;2.23;1.63;;;7.30;1.00;;;;;;4993715;28;20231;-89
2023/06/04 03:22:23;;;;;;;3.13;1.47;;;7.40;1.00;;;;;;4994233;28;20196;-89
2023/06/04 03:24:52;;;;;;;2.47;1.50;;;7.50;1.00;;;;;;4993909;28;20743;-89
2023/06/04 03:27:19;;;;;;;3.60;1.40;;;7.60;1.00;;;;;;4993961;28;20661;-89
2023/06/04 03:29:47;;;;;;;2.60;1.50;;;7.70;1.00;;;;;;4993733;28;20273;-89
2023/06/04 03:32:15;;;;;;;2.13;1.30;;;7.80;1.00;;;;;;4993352;28;20198;-89
2023/06/04 03:34:43;;;;;;;2.90;1.40;;;7.90;1.00;;;;;;4993265;28;20195;-89
2023/06/04 03:37:10;;;;;;;2.20;1.60;;;8.00;1.00;;;;;;4992495;28;20198;-89
2023/06/04 03:39:37;;;;;;;2.57;1.43;;;8.10;1.00;;;;;;4993556;28;20223;-89
2023/06/04 03:42:04;;;;;;;2.73;1.30;;;8.10;1.00;;;;;;4993553;28;20207;-88
2023/06/04 03:44:31;;;;;;;1.67;1.20;;;8.10;1.00;;;;;;4993369;28;20194;-89
2023/06/04 03:47:00;;;;;;;3.23;1.40;;;8.00;1.00;;;;;;4993587;28;20195;-89
2023/06/04 03:49:27;;;;;;;2.30;1.43;;;8.00;1.00;;;;;;4993549;28;20191;-89
2023/06/04 03:51:54;;;;;;;4.83;1.83;;;8.00;1.00;;;;;;4993024;28;20234;-89
2023/06/04 03:54:22;;;;;;;2.57;1.67;;;8.10;1.00;;;;;;4993158;28;20203;-89
2023/06/04 03:56:49;;;;;;;3.23;1.60;;;8.40;1.00;;;;;;4993190;28;20191;-89
2023/06/04 03:59:16;;;;;;;3.57;1.53;;;9.20;93.90;;;;;;4992897;28;20271;-89
2023/06/04 04:01:44;;;;;;;2.30;1.57;;;10.10;1.00;;;;;;4993364;28;20249;-89
2023/06/04 04:04:12;;;;;;;2.83;1.83;;;10.90;1.00;;;;;;4991426;28;20195;-88
2023/06/04 04:06:39;;;;;;;3.80;1.60;;;11.60;1.00;;;;;;4993144;28;20200;-89
2023/06/04 04:09:06;;;;;;;3.60;1.80;;;12.30;1.00;;;;;;4992913;28;20201;-89
2023/06/04 04:11:34;;;;;;;2.70;1.83;;;13.00;1.00;;;;;;4992824;28;20297;-89
2023/06/04 04:14:01;;;;;;;4.77;2.17;;;13.50;1.00;;;;;;4992946;28;20256;-90
2023/06/04 04:16:28;;;;;;;3.63;1.60;;;14.10;1.00;;;;;;4993181;28;20679;-89
2023/06/04 04:18:55;;;;;;;3.73;1.40;;;14.70;1.00;;;;;;4993001;28;20197;-89
2023/06/04 04:21:24;;;;;;;2.27;1.50;;;15.20;99.90;;;;;;4992876;28;20198;-89
2023/06/04 04:23:52;;;;;;;2.10;1.40;;;15.60;99.90;;;;;;4992985;28;20204;-89
2023/06/04 04:26:19;;;;;;;2.53;1.40;;;16.00;99.90;;;;;;4993000;28;20283;-89
2023/06/04 04:28:46;;;;;;;2.38;1.42;;;16.30;99.90;;;;;;4992642;28;20225;-90
2023/06/04 04:31:14;;;;;;;2.15;1.60;;;16.50;99.90;;;;;;4992654;28;20694;-90
2023/06/04 04:33:41;;;;;;;2.83;1.77;;;16.70;99.90;;;;;;4992291;28;20669;-89
2023/06/04 04:36:12;;;;;;;3.05;2.00;;;16.80;99.90;;;;;;4992739;28;20263;-89
2023/06/04 04:38:41;;;;;;;3.25;1.77;;;17.00;99.90;;;;;;4992604;28;20199;-89
2023/06/04 04:41:08;;;;;;;3.03;1.50;;;17.10;99.90;;;;;;4992914;28;20257;-90
2023/06/04 04:43:37;;;;;;;4.35;1.80;;;17.20;99.90;;;;;;4993125;28;20250;-89
2023/06/04 04:46:05;;;;;;;2.80;1.80;;;17.40;99.90;;;;;;4992764;28;20206;-89
2023/06/04 04:48:33;;;;;;;2.53;1.85;;;17.60;99.90;;;;;;4992110;28;20226;-89
2023/06/04 04:51:00;;;;;;;2.72;1.70;;;17.70;99.90;;;;;;4992765;28;20263;-89
2023/06/04 04:53:27;;;;;;;2.15;1.50;;;17.90;99.90;;;;;;4992475;28;20195;-89
2023/06/04 04:55:56;;;;;;;3.17;1.70;;;18.10;99.90;;;;;;4992734;28;20191;-89
2023/06/04 04:58:22;;;;;;;2.70;1.77;;;18.20;99.90;;;;;;4993086;28;20207;-90
2023/06/04 05:00:50;;;;;;;3.75;1.88;;;18.40;99.90;;;;;;4992432;28;20191;-90
2023/06/04 05:03:17;;;;;;;3.63;1.60;;;18.50;99.90;;;;;;4994780;28;20576;-90
2023/06/04 05:05:44;;;;;;;2.03;1.67;;;18.20;99.90;;;;;;4996038;28;20679;-89
2023/06/04 05:08:12;;;;;;;2.92;1.80;;;17.90;99.90;;;;;;4996523;28;20594;-89
2023/06/04 05:10:39;;;;;;;4.47;1.90;;;17.60;99.90;;;;;;4995962;28;20689;-89
2023/06/04 05:13:08;;;;;;;12.32;7.30;;;17.30;99.90;;;;;;4996420;28;20250;-89
2023/06/04 05:15:35;;;;;;;4.65;3.03;;;17.00;99.90;;;;;;4996459;28;20249;-88
2023/06/04 05:18:03;;;;;;;7.65;2.95;;;16.70;99.90;;;;;;4995325;28;20730;-88
2023/06/04 05:20:30;;;;;;;17.27;6.40;;;16.50;99.90;;;;;;4995908;28;20194;-89
2023/06/04 05:22:57;;;;;;;12.75;4.68;;;16.30;99.90;;;;;;4995861;28;20205;-88
2023/06/04 05:25:26;;;;;;;19.63;7.30;;;16.10;99.90;;;;;;4995995;28;20206;-88
2023/06/04 05:27:54;;;;;;;16.30;6.13;;;16.00;99.90;;;;;;4994957;28;20234;-88
2023/06/04 05:30:22;;;;;;;5.30;2.75;;;15.90;99.90;;;;;;4995075;28;20309;-88
2023/06/04 05:32:50;;;;;;;3.65;2.88;;;15.80;99.90;;;;;;4995502;28;20261;-88
2023/06/04 05:35:17;;;;;;;4.85;2.50;;;15.80;99.90;;;;;;4995476;28;20295;-88
2023/06/04 05:37:45;;;;;;;4.97;2.67;;;15.80;99.90;;;;;;4995288;28;20193;-89
2023/06/04 05:40:13;;;;;;;5.28;2.72;;;15.80;99.90;;;;;;4994384;28;20201;-88
2023/06/04 05:42:41;;;;;;;2.40;1.80;;;15.80;99.90;;;;;;4995338;28;20292;-88
2023/06/04 05:45:09;;;;;;;3.88;2.20;;;15.80;99.90;;;;;;4994713;28;20204;-88
2023/06/04 05:47:38;;;;;;;5.65;2.53;;;15.90;99.90;;;;;;4994779;28;20246;-88
2023/06/04 05:50:06;;;;;;;6.72;2.10;;;16.00;99.90;;;;;;4995145;28;20755;-88
2023/06/04 05:52:33;;;;;;;3.28;1.95;;;16.10;99.90;;;;;;4995318;28;20236;-89
2023/06/04 05:55:01;;;;;;;2.80;1.88;;;16.10;99.90;;;;;;4993069;28;20221;-88
2023/06/04 05:57:28;;;;;;;3.60;1.70;;;16.20;99.90;;;;;;4989583;28;20667;-86
2023/06/04 05:59:55;;;;;;;2.50;1.60;;;16.20;99.90;;;;;;4986729;28;20264;-86
2023/06/04 06:02:22;;;;;;;3.15;1.70;;;16.30;99.90;;;;;;4993902;28;20293;-85
2023/06/04 06:04:50;;;;;;;9.75;1.67;;;16.30;99.90;;;;;;4993023;28;20206;-86
2023/06/04 06:07:18;;;;;;;4.22;1.55;;;16.40;99.90;;;;;;4993355;28;20201;-86
2023/06/04 06:09:45;;;;;;;3.67;1.70;;;16.40;99.90;;;;;;4993323;28;20419;-85
2023/06/04 06:12:12;;;;;;;2.70;1.58;;;16.50;99.90;;;;;;4991617;28;20214;-87
2023/06/04 06:14:39;;;;;;;5.45;1.90;;;16.50;99.90;;;;;;4986627;28;20257;-85
2023/06/04 06:17:06;;;;;;;2.50;1.30;;;16.60;99.90;;;;;;4991557;28;20199;-85
2023/06/04 06:19:33;;;;;;;2.38;1.42;;;16.70;99.90;;;;;;4993320;28;20696;-86
2023/06/04 06:22:02;;;;;;;6.07;1.75;;;16.80;99.90;;;;;;4990231;28;20598;-86
2023/06/04 06:24:30;;;;;;;4.03;1.60;;;17.00;99.90;;;;;;4990649;28;20203;-86
2023/06/04 06:26:57;;;;;;;5.15;1.42;;;17.10;99.90;;;;;;4991956;28;20199;-86
2023/06/04 06:29:25;;;;;;;4.45;1.40;;;17.20;99.90;;;;;;4991184;28;20568;-86
2023/06/04 06:31:52;;;;;;;2.03;1.50;;;17.30;99.90;;;;;;4991334;28;20596;-86
2023/06/04 06:34:18;;;;;;;2.90;1.35;;;17.40;99.90;;;;;;4993750;28;20736;-86
2023/06/04 06:36:46;;;;;;;2.33;1.20;;;17.50;99.90;;;;;;4990884;28;20223;-87
2023/06/04 06:39:15;;;;;;;7.38;1.45;;;17.60;99.90;;;;;;4992588;28;20669;-87
2023/06/04 06:41:42;;;;;;;1.90;1.23;;;17.60;99.90;;;;;;4991782;28;20245;-86
2023/06/04 06:44:09;;;;;;;4.40;1.05;;;17.80;99.90;;;;;;4991027;28;20198;-87
2023/06/04 06:46:36;;;;;;;2.05;1.33;;;17.90;99.90;;;;;;4993792;28;20257;-86
2023/06/04 06:49:03;;;;;;;3.30;1.20;;;17.90;99.90;;;;;;4993299;28;20658;-87
2023/06/04 06:51:29;;;;;;;2.33;1.40;;;18.10;99.90;;;;;;4990356;28;20355;-87
2023/06/04 06:53:56;;;;;;;6.03;1.30;;;18.20;99.90;;;;;;4986961;28;20273;-88
2023/06/04 06:56:26;;;;;;;2.20;1.30;;;18.30;99.90;;;;;;4991628;28;20691;-87
2023/06/04 06:58:53;;;;;;;1.50;1.17;;;18.40;99.90;;;;;;4990497;28;20207;-85
2023/06/04 07:01:20;;;;;;;2.60;0.98;;;18.50;99.90;;;;;;4992824;28;20250;-86
2023/06/04 07:03:47;;;;;;;1.67;1.00;;;18.70;99.90;;;;;;4991361;28;20234;-87
2023/06/04 07:06:14;;;;;;;2.67;1.17;;;18.80;99.90;;;;;;4989217;28;20261;-86
2023/06/04 07:08:42;;;;;;;2.10;1.20;;;18.80;99.90;;;;;;4989983;28;20626;-87
2023/06/04 07:11:11;;;;;;;3.33;1.20;;;19.00;99.90;;;;;;4990244;28;20282;-86
2023/06/04 07:13:40;;;;;;;2.55;1.30;;;19.00;99.90;;;;;;4992486;28;20231;-86
2023/06/04 07:16:07;;;;;;;1.92;1.20;;;19.10;99.90;;;;;;4992331;28;20198;-86
2023/06/04 07:18:34;;;;;;;3.15;1.00;;;19.20;97.30;;;;;;4991917;28;20199;-87
2023/06/04 07:21:01;;;;;;;2.58;1.20;;;19.20;94.20;;;;;;4993358;28;20191;-86
2023/06/04 07:23:28;;;;;;;3.78;0.88;;;19.20;92.30;;;;;;4993522;28;20191;-86
2023/06/04 07:25:55;;;;;;;2.15;0.90;;;19.30;90.50;;;;;;4992924;28;20235;-86
2023/06/04 07:28:22;;;;;;;2.28;1.00;;;19.40;90.40;;;;;;4993593;28;20648;-86
2023/06/04 07:30:52;;;;;;;1.77;0.90;;;19.40;89.20;;;;;;4993158;28;20580;-86
2023/06/04 07:33:19;;;;;;;2.00;1.20;;;19.50;87.90;;;;;;4993116;28;20203;-86
2023/06/04 07:35:45;;;;;;;1.88;0.73;;;19.60;83.70;;;;;;4993004;28;20201;-86
2023/06/04 07:38:12;;;;;;;3.72;1.10;;;19.70;81.50;;;;;;4993364;28;20567;-86
2023/06/04 07:40:39;;;;;;;1.63;0.90;;;19.70;75.70;;;;;;4993059;28;20538;-86
2023/06/04 07:43:06;;;;;;;4.45;1.20;;;19.80;72.60;;;;;;4993506;28;20245;-86
2023/06/04 07:45:33;;;;;;;1.20;0.80;;;19.90;69.20;;;;;;4993052;28;20275;-86
2023/06/04 07:48:02;;;;;;;1.63;1.17;;;20.00;65.00;;;;;;4993144;28;20191;-86
2023/06/04 07:50:29;;;;;;;4.65;2.35;;;20.00;60.40;;;;;;4993144;28;20253;-87
2023/06/04 07:52:55;;;;;;;2.55;1.10;;;20.10;58.40;;;;;;4994050;28;20218;-87
2023/06/04 07:55:23;;;;;;;1.48;1.00;;;20.10;57.60;;;;;;4991392;28;20661;-87
2023/06/04 07:57:50;;;;;;;4.68;2.30;;;20.10;54.20;;;;;;4984691;28;20249;-87
2023/06/04 08:00:17;;;;;;;4.63;1.35;;;20.10;48.60;;;;;;4984312;28;20460;-87
2023/06/04 08:02:44;;;;;;;2.88;2.13;;;20.20;45.40;;;;;;4979989;28;20658;-86
2023/06/04 08:05:14;;;;;;;2.70;1.67;;;20.30;46.10;;;;;;4991528;28;20195;-86
2023/06/04 08:07:41;;;;;;;2.53;0.90;;;20.40;46.20;;;;;;4983684;28;20187;-87
2023/06/04 08:10:09;;;;;;;3.97;1.02;;;;;;;;;;4989526;28;20277;-85
2023/06/04 08:12:36;;;;;;;3.63;0.80;;;;;;;;;;4987635;28;20214;-87
2023/06/04 08:15:05;;;;;;;11.07;8.65;;;;;;;;;;4981816;28;20255;-87
2023/06/04 08:17:32;;;;;;;4.68;1.27;;;;;;;;;;4978935;28;20206;-87
2023/06/04 08:19:59;;;;;;;3.75;1.42;;;;;;;;;;4977710;28;20195;-87
2023/06/04 08:22:29;;;;;;;8.80;1.30;;;;;;;;;;4979834;28;20184;-86
2023/06/04 08:24:56;;;;;;;1.92;0.90;;;;;;;;;;4987205;28;20196;-86
2023/06/04 08:27:23;;;;;;;1.33;0.90;;;;;;;;;;4985756;28;20211;-87
2023/06/04 08:29:51;;;;;;;1.52;0.95;;;;;;;;;;4982866;28;20779;-86
2023/06/04 08:32:19;;;;;;;1.48;0.93;;;;;;;;;;4991794;28;20217;-86
2023/06/04 08:34:46;;;;;;;2.33;1.00;;;;;;;;;;4992192;28;20195;-86
2023/06/04 08:37:13;;;;;;;1.58;0.85;;;;;;;;;;4993631;28;20202;-85
2023/06/04 08:44:50;;;;;;;3.60;1.00;;;;;;;;;;5429751;23;21304;31
2023/06/04 08:47:20;;;;;;;2.08;0.85;;;;;;;;;;4999373;28;20222;-96
2023/06/04 08:49:50;;;;;;;2.15;0.98;;;;;;;;;;5002169;28;20192;-96
2023/06/04 08:54:54;;;;;;;3.55;1.10;;;;;;;;;;5992622;23;20173;-95
2023/06/04 08:57:21;;;;;;;1.92;0.90;;;;;;;;;;5002122;28;20231;-96
2023/06/04 09:05:18;;;;;;;2.40;0.82;;;;;;;;;;5377598;23;20227;-84
2023/06/04 09:07:47;;;;;;;1.60;0.80;;;21.60;1.00;;;;;;4995606;28;20290;-84
2023/06/04 09:10:18;;;;;;;1.67;0.80;;;21.60;10.40;;;;;;4995360;28;20246;-84
2023/06/04 09:12:48;;;;;;;3.28;0.98;;;21.50;9.40;;;;;;4995228;28;20210;-83
2023/06/04 09:15:15;;;;;;;1.55;0.68;;;21.40;9.00;;;;;;4995343;28;20715;-84
2023/06/04 09:17:42;;;;;;;3.53;0.90;;;21.30;7.60;;;;;;4995783;28;20202;-84
2023/06/04 09:20:18;;;;;;;2.40;0.80;;;21.20;6.00;;;;;;4995015;28;20735;-84
2023/06/04 09:22:46;;;;;;;1.42;1.00;;;21.20;6.00;;;;;;4994867;28;20195;-84
2023/06/04 09:25:21;;;;;;;1.60;0.90;;;21.10;4.40;;;;;;4983520;28;20191;-83
2023/06/04 09:27:48;;;;;;;1.80;0.93;;;21.10;4.90;;;;;;4980384;28;20260;-84
2023/06/04 09:30:16;;;;;;;1.02;0.75;;;21.10;4.10;;;;;;4994941;28;20227;-84
2023/06/04 09:32:43;;;;;;;2.03;0.98;;;21.10;2.60;;;;;;4994888;28;20627;-84
2023/06/04 09:35:12;;;;;;;1.75;0.98;;;21.10;2.60;;;;;;4995352;28;20201;-84
2023/06/04 09:37:39;;;;;;;3.38;0.93;;;21.20;3.20;;;;;;4995839;28;20199;-84
2023/06/04 09:40:09;;;;;;;3.08;2.53;;;21.20;2.40;;;;;;4995136;28;20672;-84
2023/06/04 09:42:45;;;;;;;2.40;0.80;;;21.40;2.70;;;;;;4995641;28;20552;-84
2023/06/04 09:45:12;;;;;;;3.55;2.20;;;21.50;2.80;;;;;;4995969;28;20198;-83
2023/06/04 09:47:43;;;;;;;2.13;0.90;;;21.50;1.00;;;;;;4994806;28;20195;-84
2023/06/04 09:50:11;;;;;;;5.78;0.88;;;21.50;1.00;;;;;;4995375;28;20222;-84
2023/06/04 09:52:39;;;;;;;0.98;0.70;;;21.50;1.00;;;;;;4993086;28;20246;-84
2023/06/04 09:55:19;;;;;;;1.25;0.80;;;21.50;1.00;;;;;;4995239;28;20206;-84
2023/06/04 09:57:48;;;;;;;1.33;0.80;;;21.60;1.00;;;;;;4980029;28;20191;-84
2023/06/04 10:00:17;;;;;;;1.55;0.80;;;21.60;1.00;;;;;;4995027;28;20203;-84
2023/06/04 10:02:46;;;;;;;2.13;0.70;;;21.70;1.00;;;;;;4994781;28;20657;-84
2023/06/04 10:05:14;;;;;;;1.35;0.80;;;21.80;1.00;;;;;;4990629;28;20214;-83
2023/06/04 10:07:44;;;;;;;1.70;0.82;;;21.80;1.00;;;;;;4993726;28;20199;-84
2023/06/04 10:10:15;;;;;;;1.70;0.90;;;21.90;1.00;;;;;;4982355;28;20719;-84
2023/06/04 10:12:44;;;;;;;1.30;0.65;;;21.90;1.00;;;;;;4994111;28;20755;-84
2023/06/04 10:15:13;;;;;;;2.10;0.82;;;22.00;1.00;;;;;;4994524;28;20195;-84
2023/06/04 10:17:40;;;;;;;1.00;0.85;;;22.10;1.00;;;;;;4994498;28;20672;-84
2023/06/04 10:20:09;;;;;;;3.42;1.05;;;22.10;1.00;;;;;;4994360;28;20203;-84
2023/06/04 10:22:36;;;;;;;2.58;0.80;;;22.00;1.00;;;;;;4994082;28;20290;-84
2023/06/04 10:25:04;;;;;;;3.03;0.80;;;22.00;1.00;;;;;;4992827;28;20198;-84
2023/06/04 10:27:32;;;;;;;2.13;1.00;;;22.00;1.00;;;;;;4983788;28;20227;-84
2023/06/04 10:30:00;;;;;;;2.05;0.98;;;22.00;1.00;;;;;;4994540;28;20683;-84
2023/06/04 10:32:28;;;;;;;3.90;0.90;;;22.10;1.00;;;;;;4993283;28;20226;-84
2023/06/04 10:34:57;;;;;;;1.00;0.70;;;22.10;1.00;;;;;;4993343;28;20191;-84
2023/06/04 10:37:25;;;;;;;2.88;0.85;;;22.20;1.00;;;;;;4993719;28;20190;-84
2023/06/04 10:39:52;;;;;;;1.83;0.82;;;22.20;1.00;;;;;;4992929;28;20551;-82
2023/06/04 10:42:21;;;;;;;0.77;0.73;;;22.20;1.00;;;;;;4993403;28;20187;-84
2023/06/04 10:44:48;;;;;;;1.00;0.60;;;22.20;1.00;;;;;;4992163;28;20226;-84
2023/06/04 10:47:24;;;;;;;3.33;0.70;;;22.30;1.00;;;;;;4993623;28;20206;-85
2023/06/04 10:49:51;;;;;;;0.98;0.70;;;22.50;1.00;;;;;;4987444;28;20229;-84
2023/06/04 10:52:19;;;;;;;1.42;0.77;;;22.50;1.00;;;;;;4994061;28;20748;-84
2023/06/04 10:54:48;;;;;;;1.02;0.70;;;22.50;1.00;;;;;;4978734;28;20225;-84
2023/06/04 10:57:16;;;;;;;2.40;0.80;;;22.50;1.00;;;;;;4994345;28;20199;-84
2023/06/04 10:59:54;;;;;;;4.72;0.80;;;22.50;1.00;;;;;;4993317;28;20205;-84
2023/06/04 11:02:23;;;;;;;3.70;0.90;;;22.60;1.00;;;;;;4994056;28;20224;-84
2023/06/04 11:05:01;;;;;;;1.42;0.90;;;22.70;1.00;;;;;;4993653;28;20224;-84
2023/06/04 11:07:28;;;;;;;2.67;0.70;;;22.80;1.00;;;;;;4993579;28;20206;-84
2023/06/04 11:09:56;;;;;;;1.20;0.80;;;22.90;1.00;;;;;;4993709;28;20665;-85
2023/06/04 11:12:22;;;;;;;1.52;0.80;;;23.00;1.00;;;;;;4993808;28;20223;-84
2023/06/04 11:14:56;;;;;;;2.53;1.00;;;22.90;1.00;;;;;;4992957;28;20206;-84
2023/06/04 11:17:24;;;;;;;2.20;0.88;;;22.70;1.00;;;;;;4993585;28;20206;-84
2023/06/04 11:19:55;;;;;;;1.17;0.60;;;22.70;1.00;;;;;;4993376;28;20203;-85
2023/06/04 11:22:21;;;;;;;1.92;1.00;;;22.70;1.00;;;;;;4993679;28;20199;-84
2023/06/04 11:24:48;;;;;;;1.63;0.80;;;22.80;1.00;;;;;;4993679;28;20207;-84
2023/06/04 11:27:15;;;;;;;0.77;0.63;;;23.00;1.00;;;;;;4993952;28;20195;-84
2023/06/04 11:29:42;;;;;;;2.58;1.00;;;23.20;1.00;;;;;;4993569;28;20202;-84
2023/06/04 11:32:08;;;;;;;1.20;0.77;;;23.30;1.00;;;;;;4993095;28;20214;-85
2023/06/04 11:34:37;;;;;;;1.70;0.80;;;23.20;1.00;;;;;;4993070;28;20584;-84
2023/06/04 11:37:10;;;;;;;1.70;0.73;;;23.10;1.00;;;;;;4993442;28;20195;-84
2023/06/04 11:39:39;;;;;;;1.00;0.70;;;23.10;1.00;;;;;;4993249;28;20199;-84
2023/06/04 11:42:07;;;;;;;2.33;0.90;;;23.00;1.00;;;;;;4993894;28;20723;-84
2023/06/04 11:44:34;;;;;;;4.38;0.90;;;23.00;1.00;;;;;;4992916;28;20584;-84
2023/06/04 11:47:01;;;;;;;1.50;0.95;;;23.00;1.00;;;;;;4993206;28;20657;-84
2023/06/04 11:49:29;;;;;;;1.10;0.70;;;23.00;1.00;;;;;;4992751;28;20669;-84
2023/06/04 11:51:57;;;;;;;1.55;1.10;;;23.00;1.00;;;;;;4993105;28;20195;-84
2023/06/04 11:54:24;;;;;;;2.13;0.93;;;23.00;1.00;;;;;;4993134;28;20197;-85
2023/06/04 11:56:52;;;;;;;1.73;0.82;;;23.00;1.00;;;;;;4992373;28;20199;-84
2023/06/04 11:59:20;;;;;;;1.77;0.95;;;23.00;1.00;;;;;;4992985;28;20206;-84
2023/06/04 12:01:48;;;;;;;2.00;0.80;;;23.10;1.00;;;;;;4993057;28;20199;-84
2023/06/04 12:04:16;;;;;;;1.33;0.73;;;23.20;1.00;;;;;;4992714;28;20215;-84
2023/06/04 12:06:52;;;;;;;1.33;1.02;;;23.20;1.00;;;;;;4992890;28;20581;-85
2023/06/04 12:09:23;;;;;;;4.13;0.90;;;23.30;1.00;;;;;;4989553;28;20195;-84
2023/06/04 12:11:50;;;;;;;2.30;0.80;;;23.30;1.00;;;;;;4992055;28;20281;-85
2023/06/04 12:14:18;;;;;;;2.28;1.02;;;23.40;1.00;;;;;;4992703;28;20218;-84
2023/06/04 12:16:55;;;;;;;2.33;0.85;;;23.50;1.00;;;;;;4992729;28;20191;-85
2023/06/04 12:19:22;;;;;;;1.27;0.80;;;23.60;1.00;;;;;;4992328;28;20656;-84
2023/06/04 12:22:01;;;;;;;2.97;0.88;;;23.60;1.00;;;;;;4992873;28;20195;-85
2023/06/04 12:24:30;;;;;;;2.15;1.02;;;23.70;1.00;;;;;;4992955;28;20241;-84
2023/06/04 12:27:04;;;;;;;1.40;0.90;;;23.80;1.00;;;;;;4993021;28;20199;-84
2023/06/04 12:29:31;;;;;;;1.27;0.80;;;23.70;1.00;;;;;;4992572;28;20205;-84
2023/06/04 12:32:07;;;;;;;1.45;0.88;;;23.60;1.00;;;;;;4992713;28;20199;-85
2023/06/04 12:34:34;;;;;;;2.28;0.77;;;23.60;1.00;;;;;;4992556;28;20202;-84
2023/06/04 12:37:02;;;;;;;2.25;0.90;;;23.80;1.00;;;;;;4992621;28;20206;-85
2023/06/04 12:39:31;;;;;;;2.42;1.17;;;23.80;1.00;;;;;;4992691;28;20198;-84
2023/06/04 12:41:58;;;;;;;1.13;0.80;;;23.80;1.00;;;;;;4992890;28;20209;-84
2023/06/04 12:44:24;;;;;;;1.60;0.90;;;23.80;1.00;;;;;;4992778;28;20211;-85
2023/06/04 12:46:51;;;;;;;4.05;1.02;;;23.80;1.00;;;;;;4992135;28;20199;-85
2023/06/04 12:49:18;;;;;;;1.75;0.70;;;23.90;1.00;;;;;;4992634;28;20195;-84
2023/06/04 12:51:45;;;;;;;1.15;0.77;;;23.90;1.00;;;;;;4992744;28;20199;-85
2023/06/04 12:54:12;;;;;;;1.63;0.80;;;23.90;1.00;;;;;;4992985;28;20215;-85
2023/06/04 12:56:40;;;;;;;1.15;0.80;;;24.00;1.00;;;;;;4992326;28;20205;-84
2023/06/04 12:59:07;;;;;;;0.88;0.80;;;24.10;1.00;;;;;;4992565;28;20206;-85
2023/06/04 13:01:34;;;;;;;1.08;0.68;;;24.20;1.00;;;;;;4992037;28;20199;-84
2023/06/04 13:04:01;;;;;;;1.75;1.02;;;24.30;1.00;;;;;;4992294;28;20231;-84
2023/06/04 13:06:28;;;;;;;3.33;0.80;;;24.20;1.00;;;;;;4992532;28;20199;-84
2023/06/04 13:08:54;;;;;;;2.05;0.95;;;24.10;1.00;;;;;;4992511;28;20310;-85
2023/06/04 13:11:22;;;;;;;0.90;0.80;;;24.10;1.00;;;;;;4992114;28;20202;-85
2023/06/04 13:13:50;;;;;;;1.42;1.00;;;24.10;1.00;;;;;;4992214;28;20638;-84
2023/06/04 13:16:17;;;;;;;1.20;0.90;;;24.00;1.00;;;;;;4992145;28;20201;-84
2023/06/04 13:18:44;;;;;;;2.33;1.00;;;24.00;1.00;;;;;;4992302;28;20661;-84